sensor_id;sensor_type;location;lat;lon;timestamp;P1;durP1;ratioP1;P2;durP2;ratioP2
16689;SDS011;8458;52.220;9.884;2023-07-30T00:00:22;0.70;;;0.70;;
16689;SDS011;8458;52.220;9.884;2023-07-30T00:02:48;0.77;;;0.77;;
16689;SDS011;8458;52.220;9.884;2023-07-30T00:05:15;0.60;;;0.60;;
16689;SDS011;8458;52.220;9.884;2023-07-30T00:07:43;0.60;;;0.60;;
16689;SDS011;8458;52.220;9.884;2023-07-30T00:10:09;0.80;;;0.80;;
16689;SDS011;8458;52.220;9.884;2023-07-30T00:12:36;0.70;;;0.70;;
16689;SDS011;8458;52.220;9.884;2023-07-30T00:15:03;1.10;;;1.00;;
16689;SDS011;8458;52.220;9.884;2023-07-30T00:17:30;0.90;;;0.90;;
16689;SDS011;8458;52.220;9.884;2023-07-30T00:19:57;1.10;;;1.10;;
16689;SDS011;8458;52.220;9.884;2023-07-30T00:22:24;1.30;;;1.10;;
16689;SDS011;8458;52.220;9.884;2023-07-30T00:24:51;1.03;;;1.00;;
16689;SDS011;8458;52.220;9.884;2023-07-30T00:27:18;0.70;;;0.70;;
16689;SDS011;8458;52.220;9.884;2023-07-30T00:29:44;0.93;;;0.80;;
16689;SDS011;8458;52.220;9.884;2023-07-30T00:32:11;0.70;;;0.70;;
16689;SDS011;8458;52.220;9.884;2023-07-30T00:34:40;0.87;;;0.87;;
16689;SDS011;8458;52.220;9.884;2023-07-30T00:37:07;0.90;;;0.90;;
16689;SDS011;8458;52.220;9.884;2023-07-30T00:39:33;0.93;;;0.93;;
16689;SDS011;8458;52.220;9.884;2023-07-30T00:42:01;1.30;;;0.93;;
16689;SDS011;8458;52.220;9.884;2023-07-30T00:44:27;0.90;;;0.90;;
16689;SDS011;8458;52.220;9.884;2023-07-30T00:46:54;1.23;;;0.90;;
16689;SDS011;8458;52.220;9.884;2023-07-30T00:49:20;1.23;;;0.80;;
16689;SDS011;8458;52.220;9.884;2023-07-30T00:51:47;0.90;;;0.90;;
16689;SDS011;8458;52.220;9.884;2023-07-30T00:54:13;2.00;;;0.90;;
16689;SDS011;8458;52.220;9.884;2023-07-30T00:56:40;1.70;;;0.90;;
16689;SDS011;8458;52.220;9.884;2023-07-30T00:59:16;1.20;;;1.00;;
16689;SDS011;8458;52.220;9.884;2023-07-30T01:01:43;1.50;;;0.90;;
16689;SDS011;8458;52.220;9.884;2023-07-30T01:04:12;1.33;;;1.13;;
16689;SDS011;8458;52.220;9.884;2023-07-30T01:06:39;1.03;;;1.00;;
16689;SDS011;8458;52.220;9.884;2023-07-30T01:09:05;1.13;;;1.07;;
16689;SDS011;8458;52.220;9.884;2023-07-30T01:11:32;2.27;;;1.10;;
16689;SDS011;8458;52.220;9.884;2023-07-30T01:13:59;1.70;;;1.10;;
16689;SDS011;8458;52.220;9.884;2023-07-30T01:16:27;0.90;;;0.90;;
16689;SDS011;8458;52.220;9.884;2023-07-30T01:18:54;1.20;;;0.90;;
16689;SDS011;8458;52.220;9.884;2023-07-30T01:21:22;0.90;;;0.90;;
16689;SDS011;8458;52.220;9.884;2023-07-30T01:23:49;0.90;;;0.90;;
16689;SDS011;8458;52.220;9.884;2023-07-30T01:26:16;1.10;;;1.00;;
16689;SDS011;8458;52.220;9.884;2023-07-30T01:28:49;1.70;;;0.90;;
16689;SDS011;8458;52.220;9.884;2023-07-30T01:31:20;1.53;;;1.13;;
16689;SDS011;8458;52.220;9.884;2023-07-30T01:33:51;1.10;;;1.00;;
16689;SDS011;8458;52.220;9.884;2023-07-30T01:36:20;1.30;;;1.10;;
16689;SDS011;8458;52.220;9.884;2023-07-30T01:38:49;1.10;;;1.00;;
16689;SDS011;8458;52.220;9.884;2023-07-30T01:41:17;1.40;;;1.00;;
16689;SDS011;8458;52.220;9.884;2023-07-30T01:43:43;1.50;;;1.20;;
16689;SDS011;8458;52.220;9.884;2023-07-30T01:46:10;0.90;;;0.90;;
16689;SDS011;8458;52.220;9.884;2023-07-30T01:48:36;1.10;;;1.00;;
16689;SDS011;8458;52.220;9.884;2023-07-30T01:51:02;1.40;;;1.10;;
16689;SDS011;8458;52.220;9.884;2023-07-30T01:53:29;1.17;;;1.07;;
16689;SDS011;8458;52.220;9.884;2023-07-30T01:55:57;1.63;;;1.10;;
16689;SDS011;8458;52.220;9.884;2023-07-30T01:58:23;1.23;;;1.03;;
16689;SDS011;8458;52.220;9.884;2023-07-30T02:00:50;1.30;;;1.10;;
16689;SDS011;8458;52.220;9.884;2023-07-30T02:03:16;2.03;;;1.30;;
16689;SDS011;8458;52.220;9.884;2023-07-30T02:05:43;1.73;;;1.20;;
16689;SDS011;8458;52.220;9.884;2023-07-30T02:08:09;1.63;;;1.07;;
16689;SDS011;8458;52.220;9.884;2023-07-30T02:10:38;1.77;;;1.20;;
16689;SDS011;8458;52.220;9.884;2023-07-30T02:13:06;1.07;;;0.90;;
16689;SDS011;8458;52.220;9.884;2023-07-30T02:15:32;1.50;;;1.30;;
16689;SDS011;8458;52.220;9.884;2023-07-30T02:17:59;2.00;;;1.40;;
16689;SDS011;8458;52.220;9.884;2023-07-30T02:20:25;1.73;;;1.50;;
16689;SDS011;8458;52.220;9.884;2023-07-30T02:22:52;1.57;;;1.20;;
16689;SDS011;8458;52.220;9.884;2023-07-30T02:25:19;1.40;;;1.30;;
16689;SDS011;8458;52.220;9.884;2023-07-30T02:27:45;1.87;;;1.40;;
16689;SDS011;8458;52.220;9.884;2023-07-30T02:30:13;1.30;;;1.20;;
16689;SDS011;8458;52.220;9.884;2023-07-30T02:32:40;1.90;;;1.00;;
16689;SDS011;8458;52.220;9.884;2023-07-30T02:35:07;1.87;;;1.30;;
16689;SDS011;8458;52.220;9.884;2023-07-30T02:37:34;1.30;;;1.20;;
16689;SDS011;8458;52.220;9.884;2023-07-30T02:40:00;2.50;;;1.27;;
16689;SDS011;8458;52.220;9.884;2023-07-30T02:42:29;1.93;;;1.40;;
16689;SDS011;8458;52.220;9.884;2023-07-30T02:44:56;1.67;;;1.33;;
16689;SDS011;8458;52.220;9.884;2023-07-30T02:47:24;1.83;;;1.23;;
16689;SDS011;8458;52.220;9.884;2023-07-30T02:49:50;1.50;;;1.20;;
16689;SDS011;8458;52.220;9.884;2023-07-30T02:52:16;2.27;;;1.40;;
16689;SDS011;8458;52.220;9.884;2023-07-30T02:54:43;1.63;;;1.47;;
16689;SDS011;8458;52.220;9.884;2023-07-30T02:57:09;3.43;;;1.63;;
16689;SDS011;8458;52.220;9.884;2023-07-30T02:59:37;3.33;;;1.40;;
16689;SDS011;8458;52.220;9.884;2023-07-30T03:02:05;1.63;;;1.40;;
16689;SDS011;8458;52.220;9.884;2023-07-30T03:04:33;1.90;;;1.20;;
16689;SDS011;8458;52.220;9.884;2023-07-30T03:07:00;1.37;;;1.27;;
16689;SDS011;8458;52.220;9.884;2023-07-30T03:09:26;1.57;;;1.47;;
16689;SDS011;8458;52.220;9.884;2023-07-30T03:11:53;1.50;;;1.40;;
16689;SDS011;8458;52.220;9.884;2023-07-30T03:14:20;2.97;;;1.67;;
16689;SDS011;8458;52.220;9.884;2023-07-30T03:16:46;1.87;;;1.40;;
16689;SDS011;8458;52.220;9.884;2023-07-30T03:19:13;2.03;;;1.50;;
16689;SDS011;8458;52.220;9.884;2023-07-30T03:21:41;2.27;;;1.40;;
16689;SDS011;8458;52.220;9.884;2023-07-30T03:24:07;2.73;;;1.40;;
16689;SDS011;8458;52.220;9.884;2023-07-30T03:26:34;1.60;;;1.50;;
16689;SDS011;8458;52.220;9.884;2023-07-30T03:29:00;1.50;;;1.40;;
16689;SDS011;8458;52.220;9.884;2023-07-30T03:31:27;2.50;;;1.47;;
16689;SDS011;8458;52.220;9.884;2023-07-30T03:33:54;1.80;;;1.57;;
16689;SDS011;8458;52.220;9.884;2023-07-30T03:36:20;2.40;;;1.40;;
16689;SDS011;8458;52.220;9.884;2023-07-30T03:38:48;1.80;;;1.30;;
16689;SDS011;8458;52.220;9.884;2023-07-30T03:41:14;1.97;;;1.60;;
16689;SDS011;8458;52.220;9.884;2023-07-30T03:43:41;1.37;;;1.13;;
16689;SDS011;8458;52.220;9.884;2023-07-30T03:46:08;2.60;;;1.30;;
16689;SDS011;8458;52.220;9.884;2023-07-30T03:48:34;1.40;;;1.30;;
16689;SDS011;8458;52.220;9.884;2023-07-30T03:51:01;2.37;;;1.50;;
16689;SDS011;8458;52.220;9.884;2023-07-30T03:53:27;1.73;;;1.30;;
16689;SDS011;8458;52.220;9.884;2023-07-30T03:55:55;1.67;;;1.23;;
16689;SDS011;8458;52.220;9.884;2023-07-30T03:58:22;1.40;;;1.30;;
16689;SDS011;8458;52.220;9.884;2023-07-30T04:00:48;2.00;;;1.40;;
16689;SDS011;8458;52.220;9.884;2023-07-30T04:03:14;2.30;;;1.30;;
16689;SDS011;8458;52.220;9.884;2023-07-30T04:05:41;2.03;;;1.30;;
16689;SDS011;8458;52.220;9.884;2023-07-30T04:08:07;2.10;;;1.73;;
16689;SDS011;8458;52.220;9.884;2023-07-30T04:10:34;2.23;;;1.50;;
16689;SDS011;8458;52.220;9.884;2023-07-30T04:13:02;1.43;;;1.33;;
16689;SDS011;8458;52.220;9.884;2023-07-30T04:15:28;2.27;;;1.70;;
16689;SDS011;8458;52.220;9.884;2023-07-30T04:17:55;2.47;;;1.47;;
16689;SDS011;8458;52.220;9.884;2023-07-30T04:20:21;2.17;;;1.43;;
16689;SDS011;8458;52.220;9.884;2023-07-30T04:22:47;1.87;;;1.30;;
16689;SDS011;8458;52.220;9.884;2023-07-30T04:25:14;3.00;;;1.60;;
16689;SDS011;8458;52.220;9.884;2023-07-30T04:27:40;2.30;;;1.67;;
16689;SDS011;8458;52.220;9.884;2023-07-30T04:30:08;2.00;;;1.80;;
16689;SDS011;8458;52.220;9.884;2023-07-30T04:32:36;1.73;;;1.50;;
16689;SDS011;8458;52.220;9.884;2023-07-30T04:35:02;2.73;;;1.87;;
16689;SDS011;8458;52.220;9.884;2023-07-30T04:37:29;2.33;;;1.60;;
16689;SDS011;8458;52.220;9.884;2023-07-30T04:39:56;2.53;;;1.80;;
16689;SDS011;8458;52.220;9.884;2023-07-30T04:42:22;2.30;;;1.70;;
16689;SDS011;8458;52.220;9.884;2023-07-30T04:44:49;3.10;;;1.50;;
16689;SDS011;8458;52.220;9.884;2023-07-30T04:47:17;3.37;;;1.70;;
16689;SDS011;8458;52.220;9.884;2023-07-30T04:49:43;2.77;;;1.60;;
16689;SDS011;8458;52.220;9.884;2023-07-30T04:52:10;2.43;;;1.87;;
16689;SDS011;8458;52.220;9.884;2023-07-30T04:54:36;2.43;;;1.93;;
16689;SDS011;8458;52.220;9.884;2023-07-30T04:57:03;2.63;;;2.00;;
16689;SDS011;8458;52.220;9.884;2023-07-30T04:59:30;2.47;;;2.10;;
16689;SDS011;8458;52.220;9.884;2023-07-30T05:01:58;3.00;;;2.60;;
16689;SDS011;8458;52.220;9.884;2023-07-30T05:04:26;3.63;;;2.53;;
16689;SDS011;8458;52.220;9.884;2023-07-30T05:06:52;3.87;;;2.70;;
16689;SDS011;8458;52.220;9.884;2023-07-30T05:09:19;3.10;;;2.80;;
16689;SDS011;8458;52.220;9.884;2023-07-30T05:11:46;4.80;;;4.40;;
16689;SDS011;8458;52.220;9.884;2023-07-30T05:14:12;5.23;;;4.47;;
16689;SDS011;8458;52.220;9.884;2023-07-30T05:16:39;4.70;;;4.30;;
16689;SDS011;8458;52.220;9.884;2023-07-30T05:19:05;4.43;;;4.03;;
16689;SDS011;8458;52.220;9.884;2023-07-30T05:21:33;4.03;;;3.70;;
16689;SDS011;8458;52.220;9.884;2023-07-30T05:23:59;4.73;;;4.33;;
16689;SDS011;8458;52.220;9.884;2023-07-30T05:26:26;6.23;;;4.03;;
16689;SDS011;8458;52.220;9.884;2023-07-30T05:28:52;4.53;;;4.23;;
16689;SDS011;8458;52.220;9.884;2023-07-30T05:31:19;4.90;;;4.60;;
16689;SDS011;8458;52.220;9.884;2023-07-30T05:33:45;5.67;;;5.23;;
16689;SDS011;8458;52.220;9.884;2023-07-30T05:36:12;5.47;;;4.97;;
16689;SDS011;8458;52.220;9.884;2023-07-30T05:38:39;6.27;;;5.77;;
16689;SDS011;8458;52.220;9.884;2023-07-30T05:41:06;6.27;;;5.87;;
16689;SDS011;8458;52.220;9.884;2023-07-30T05:43:32;6.40;;;6.10;;
16689;SDS011;8458;52.220;9.884;2023-07-30T05:45:59;6.03;;;5.67;;
16689;SDS011;8458;52.220;9.884;2023-07-30T05:48:25;6.40;;;5.80;;
16689;SDS011;8458;52.220;9.884;2023-07-30T05:50:52;6.30;;;5.90;;
16689;SDS011;8458;52.220;9.884;2023-07-30T05:53:18;6.90;;;6.30;;
16689;SDS011;8458;52.220;9.884;2023-07-30T05:55:46;5.90;;;5.40;;
16689;SDS011;8458;52.220;9.884;2023-07-30T05:58:13;5.77;;;5.43;;
16689;SDS011;8458;52.220;9.884;2023-07-30T06:00:39;5.20;;;4.80;;
16689;SDS011;8458;52.220;9.884;2023-07-30T06:03:06;4.80;;;4.37;;
16689;SDS011;8458;52.220;9.884;2023-07-30T06:05:38;5.00;;;4.60;;
16689;SDS011;8458;52.220;9.884;2023-07-30T06:08:05;4.83;;;4.43;;
16689;SDS011;8458;52.220;9.884;2023-07-30T06:10:33;4.30;;;3.90;;
16689;SDS011;8458;52.220;9.884;2023-07-30T06:13:02;5.13;;;3.93;;
16689;SDS011;8458;52.220;9.884;2023-07-30T06:15:28;4.13;;;3.33;;
16689;SDS011;8458;52.220;9.884;2023-07-30T06:17:55;3.97;;;3.23;;
16689;SDS011;8458;52.220;9.884;2023-07-30T06:20:21;3.00;;;2.70;;
16689;SDS011;8458;52.220;9.884;2023-07-30T06:22:47;2.70;;;2.30;;
16689;SDS011;8458;52.220;9.884;2023-07-30T06:25:14;2.60;;;2.20;;
16689;SDS011;8458;52.220;9.884;2023-07-30T06:27:41;2.80;;;2.07;;
16689;SDS011;8458;52.220;9.884;2023-07-30T06:30:09;2.77;;;1.80;;
16689;SDS011;8458;52.220;9.884;2023-07-30T06:32:36;1.87;;;1.60;;
16689;SDS011;8458;52.220;9.884;2023-07-30T06:35:03;3.07;;;1.70;;
16689;SDS011;8458;52.220;9.884;2023-07-30T06:37:31;2.83;;;1.63;;
16689;SDS011;8458;52.220;9.884;2023-07-30T06:39:57;2.37;;;1.30;;
16689;SDS011;8458;52.220;9.884;2023-07-30T06:42:24;1.83;;;1.30;;
16689;SDS011;8458;52.220;9.884;2023-07-30T06:44:50;2.60;;;1.40;;
16689;SDS011;8458;52.220;9.884;2023-07-30T06:47:18;2.10;;;1.57;;
16689;SDS011;8458;52.220;9.884;2023-07-30T06:49:44;1.80;;;1.43;;
16689;SDS011;8458;52.220;9.884;2023-07-30T06:52:11;2.33;;;1.13;;
16689;SDS011;8458;52.220;9.884;2023-07-30T06:54:37;2.13;;;1.10;;
16689;SDS011;8458;52.220;9.884;2023-07-30T06:57:04;2.00;;;1.30;;
16689;SDS011;8458;52.220;9.884;2023-07-30T06:59:31;2.13;;;1.10;;
16689;SDS011;8458;52.220;9.884;2023-07-30T07:01:57;2.07;;;1.20;;
16689;SDS011;8458;52.220;9.884;2023-07-30T07:04:25;3.43;;;1.30;;
16689;SDS011;8458;52.220;9.884;2023-07-30T07:06:52;1.53;;;1.10;;
16689;SDS011;8458;52.220;9.884;2023-07-30T07:09:18;1.80;;;1.20;;
16689;SDS011;8458;52.220;9.884;2023-07-30T07:11:45;1.97;;;1.30;;
16689;SDS011;8458;52.220;9.884;2023-07-30T07:14:11;1.27;;;0.97;;
16689;SDS011;8458;52.220;9.884;2023-07-30T07:16:38;3.30;;;1.30;;
16689;SDS011;8458;52.220;9.884;2023-07-30T07:19:04;2.07;;;1.20;;
16689;SDS011;8458;52.220;9.884;2023-07-30T07:21:32;3.20;;;1.23;;
16689;SDS011;8458;52.220;9.884;2023-07-30T07:23:59;1.70;;;1.20;;
16689;SDS011;8458;52.220;9.884;2023-07-30T07:26:25;2.47;;;1.17;;
16689;SDS011;8458;52.220;9.884;2023-07-30T07:28:52;2.03;;;1.40;;
16689;SDS011;8458;52.220;9.884;2023-07-30T07:31:18;1.63;;;0.93;;
16689;SDS011;8458;52.220;9.884;2023-07-30T07:33:45;2.43;;;1.30;;
16689;SDS011;8458;52.220;9.884;2023-07-30T07:36:11;2.07;;;1.07;;
16689;SDS011;8458;52.220;9.884;2023-07-30T07:38:40;2.73;;;1.20;;
16689;SDS011;8458;52.220;9.884;2023-07-30T07:41:07;1.47;;;1.00;;
16689;SDS011;8458;52.220;9.884;2023-07-30T07:43:33;2.03;;;1.20;;
16689;SDS011;8458;52.220;9.884;2023-07-30T07:46:00;2.83;;;1.27;;
16689;SDS011;8458;52.220;9.884;2023-07-30T07:48:26;3.00;;;1.33;;
16689;SDS011;8458;52.220;9.884;2023-07-30T07:50:53;2.80;;;1.40;;
16689;SDS011;8458;52.220;9.884;2023-07-30T07:53:19;1.77;;;1.20;;
16689;SDS011;8458;52.220;9.884;2023-07-30T07:55:47;1.27;;;1.17;;
16689;SDS011;8458;52.220;9.884;2023-07-30T07:58:14;2.43;;;1.20;;
16689;SDS011;8458;52.220;9.884;2023-07-30T08:00:40;2.63;;;1.33;;
16689;SDS011;8458;52.220;9.884;2023-07-30T08:03:07;1.50;;;1.10;;
16689;SDS011;8458;52.220;9.884;2023-07-30T08:05:33;1.80;;;1.00;;
16689;SDS011;8458;52.220;9.884;2023-07-30T08:08:00;2.07;;;1.20;;
16689;SDS011;8458;52.220;9.884;2023-07-30T08:10:27;2.47;;;1.10;;
16689;SDS011;8458;52.220;9.884;2023-07-30T08:12:54;1.87;;;1.00;;
16689;SDS011;8458;52.220;9.884;2023-07-30T08:15:21;2.70;;;1.10;;
16689;SDS011;8458;52.220;9.884;2023-07-30T08:17:48;1.60;;;1.20;;
16689;SDS011;8458;52.220;9.884;2023-07-30T08:20:14;2.57;;;1.20;;
16689;SDS011;8458;52.220;9.884;2023-07-30T08:22:41;2.03;;;1.00;;
16689;SDS011;8458;52.220;9.884;2023-07-30T08:25:08;1.60;;;1.10;;
16689;SDS011;8458;52.220;9.884;2023-07-30T08:27:34;2.37;;;1.30;;
16689;SDS011;8458;52.220;9.884;2023-07-30T08:30:02;2.10;;;1.30;;
16689;SDS011;8458;52.220;9.884;2023-07-30T08:32:29;2.43;;;1.30;;
16689;SDS011;8458;52.220;9.884;2023-07-30T08:34:56;2.80;;;1.30;;
16689;SDS011;8458;52.220;9.884;2023-07-30T08:37:22;2.27;;;1.43;;
16689;SDS011;8458;52.220;9.884;2023-07-30T08:39:49;2.33;;;1.20;;
16689;SDS011;8458;52.220;9.884;2023-07-30T08:42:16;2.40;;;0.97;;
16689;SDS011;8458;52.220;9.884;2023-07-30T08:44:42;2.47;;;1.13;;
16689;SDS011;8458;52.220;9.884;2023-07-30T08:47:10;2.67;;;1.27;;
16689;SDS011;8458;52.220;9.884;2023-07-30T08:49:37;1.67;;;1.10;;
16689;SDS011;8458;52.220;9.884;2023-07-30T08:52:04;2.70;;;1.20;;
16689;SDS011;8458;52.220;9.884;2023-07-30T08:54:34;1.37;;;1.07;;
16689;SDS011;8458;52.220;9.884;2023-07-30T08:57:03;1.57;;;1.00;;
16689;SDS011;8458;52.220;9.884;2023-07-30T08:59:30;2.70;;;1.00;;
16689;SDS011;8458;52.220;9.884;2023-07-30T09:02:01;2.17;;;1.20;;
16689;SDS011;8458;52.220;9.884;2023-07-30T09:04:31;2.00;;;1.20;;
16689;SDS011;8458;52.220;9.884;2023-07-30T09:07:03;1.33;;;1.10;;
16689;SDS011;8458;52.220;9.884;2023-07-30T09:09:30;2.60;;;1.40;;
16689;SDS011;8458;52.220;9.884;2023-07-30T09:11:57;4.17;;;1.33;;
16689;SDS011;8458;52.220;9.884;2023-07-30T09:14:25;2.30;;;1.27;;
16689;SDS011;8458;52.220;9.884;2023-07-30T09:16:56;2.17;;;1.30;;
16689;SDS011;8458;52.220;9.884;2023-07-30T09:19:23;2.17;;;1.20;;
16689;SDS011;8458;52.220;9.884;2023-07-30T09:21:51;2.20;;;1.20;;
16689;SDS011;8458;52.220;9.884;2023-07-30T09:24:20;2.60;;;1.13;;
16689;SDS011;8458;52.220;9.884;2023-07-30T09:26:47;2.83;;;1.50;;
16689;SDS011;8458;52.220;9.884;2023-07-30T09:29:14;2.70;;;1.20;;
16689;SDS011;8458;52.220;9.884;2023-07-30T09:31:47;2.87;;;1.53;;
16689;SDS011;8458;52.220;9.884;2023-07-30T09:34:15;1.90;;;1.27;;
16689;SDS011;8458;52.220;9.884;2023-07-30T09:36:42;2.90;;;1.17;;
16689;SDS011;8458;52.220;9.884;2023-07-30T09:39:15;1.60;;;1.00;;
16689;SDS011;8458;52.220;9.884;2023-07-30T09:41:42;1.60;;;1.03;;
16689;SDS011;8458;52.220;9.884;2023-07-30T09:44:09;2.03;;;1.20;;
16689;SDS011;8458;52.220;9.884;2023-07-30T09:46:41;2.57;;;1.40;;
16689;SDS011;8458;52.220;9.884;2023-07-30T09:49:08;2.60;;;1.40;;
16689;SDS011;8458;52.220;9.884;2023-07-30T09:51:35;2.90;;;1.27;;
16689;SDS011;8458;52.220;9.884;2023-07-30T09:54:03;2.13;;;1.13;;
16689;SDS011;8458;52.220;9.884;2023-07-30T09:56:31;3.30;;;1.30;;
16689;SDS011;8458;52.220;9.884;2023-07-30T09:58:57;2.67;;;1.20;;
16689;SDS011;8458;52.220;9.884;2023-07-30T10:01:24;2.93;;;1.30;;
16689;SDS011;8458;52.220;9.884;2023-07-30T10:03:54;2.30;;;1.37;;
16689;SDS011;8458;52.220;9.884;2023-07-30T10:06:23;1.63;;;1.23;;
16689;SDS011;8458;52.220;9.884;2023-07-30T10:08:52;2.77;;;1.40;;
16689;SDS011;8458;52.220;9.884;2023-07-30T10:11:19;3.00;;;1.30;;
16689;SDS011;8458;52.220;9.884;2023-07-30T10:13:49;2.47;;;1.40;;
16689;SDS011;8458;52.220;9.884;2023-07-30T10:16:15;3.43;;;1.43;;
16689;SDS011;8458;52.220;9.884;2023-07-30T10:18:43;3.90;;;1.70;;
16689;SDS011;8458;52.220;9.884;2023-07-30T10:21:10;2.57;;;1.30;;
16689;SDS011;8458;52.220;9.884;2023-07-30T10:23:50;3.33;;;1.87;;
16689;SDS011;8458;52.220;9.884;2023-07-30T10:26:26;2.40;;;1.83;;
16689;SDS011;8458;52.220;9.884;2023-07-30T10:29:05;4.30;;;1.67;;
16689;SDS011;8458;52.220;9.884;2023-07-30T10:31:37;4.27;;;2.50;;
16689;SDS011;8458;52.220;9.884;2023-07-30T10:34:06;4.30;;;2.40;;
16689;SDS011;8458;52.220;9.884;2023-07-30T10:36:33;4.23;;;2.70;;
16689;SDS011;8458;52.220;9.884;2023-07-30T10:39:14;3.87;;;2.43;;
16689;SDS011;8458;52.220;9.884;2023-07-30T10:41:45;5.00;;;2.57;;
16689;SDS011;8458;52.220;9.884;2023-07-30T10:44:20;2.87;;;2.47;;
16689;SDS011;8458;52.220;9.884;2023-07-30T10:46:48;3.67;;;2.60;;
16689;SDS011;8458;52.220;9.884;2023-07-30T10:49:15;4.47;;;3.07;;
16689;SDS011;8458;52.220;9.884;2023-07-30T10:51:41;3.27;;;2.63;;
16689;SDS011;8458;52.220;9.884;2023-07-30T10:54:08;3.47;;;3.17;;
16689;SDS011;8458;52.220;9.884;2023-07-30T10:56:34;3.43;;;3.07;;
16689;SDS011;8458;52.220;9.884;2023-07-30T10:59:03;3.47;;;3.17;;
16689;SDS011;8458;52.220;9.884;2023-07-30T11:01:35;3.83;;;3.53;;
16689;SDS011;8458;52.220;9.884;2023-07-30T11:04:05;4.40;;;3.33;;
16689;SDS011;8458;52.220;9.884;2023-07-30T11:06:32;3.10;;;2.77;;
16689;SDS011;8458;52.220;9.884;2023-07-30T11:08:58;3.97;;;2.90;;
16689;SDS011;8458;52.220;9.884;2023-07-30T11:11:25;3.13;;;2.50;;
16689;SDS011;8458;52.220;9.884;2023-07-30T11:13:51;3.77;;;2.37;;
16689;SDS011;8458;52.220;9.884;2023-07-30T11:16:18;3.10;;;2.23;;
16689;SDS011;8458;52.220;9.884;2023-07-30T11:18:46;3.40;;;2.40;;
16689;SDS011;8458;52.220;9.884;2023-07-30T11:21:13;4.80;;;2.30;;
16689;SDS011;8458;52.220;9.884;2023-07-30T11:23:41;4.30;;;2.47;;
16689;SDS011;8458;52.220;9.884;2023-07-30T11:26:12;4.30;;;2.30;;
16689;SDS011;8458;52.220;9.884;2023-07-30T11:28:40;3.07;;;2.10;;
16689;SDS011;8458;52.220;9.884;2023-07-30T11:31:07;3.30;;;2.10;;
16689;SDS011;8458;52.220;9.884;2023-07-30T11:33:35;2.30;;;2.10;;
16689;SDS011;8458;52.220;9.884;2023-07-30T11:36:04;4.07;;;2.90;;
16689;SDS011;8458;52.220;9.884;2023-07-30T11:38:32;3.90;;;2.60;;
16689;SDS011;8458;52.220;9.884;2023-07-30T11:40:58;3.20;;;2.40;;
16689;SDS011;8458;52.220;9.884;2023-07-30T11:43:25;3.23;;;2.67;;
16689;SDS011;8458;52.220;9.884;2023-07-30T11:46:05;4.40;;;2.40;;
16689;SDS011;8458;52.220;9.884;2023-07-30T11:48:37;2.50;;;2.20;;
16689;SDS011;8458;52.220;9.884;2023-07-30T11:51:05;3.87;;;2.40;;
16689;SDS011;8458;52.220;9.884;2023-07-30T11:53:43;3.33;;;3.00;;
16689;SDS011;8458;52.220;9.884;2023-07-30T11:56:14;3.37;;;2.77;;
16689;SDS011;8458;52.220;9.884;2023-07-30T11:58:48;3.57;;;2.70;;
16689;SDS011;8458;52.220;9.884;2023-07-30T12:01:15;3.33;;;3.03;;
16689;SDS011;8458;52.220;9.884;2023-07-30T12:03:42;3.40;;;2.80;;
16689;SDS011;8458;52.220;9.884;2023-07-30T12:06:11;2.83;;;2.50;;
16689;SDS011;8458;52.220;9.884;2023-07-30T12:08:38;3.20;;;2.57;;
16689;SDS011;8458;52.220;9.884;2023-07-30T12:11:05;3.50;;;2.10;;
16689;SDS011;8458;52.220;9.884;2023-07-30T12:13:32;3.23;;;2.30;;
16689;SDS011;8458;52.220;9.884;2023-07-30T12:15:59;2.97;;;1.90;;
16689;SDS011;8458;52.220;9.884;2023-07-30T12:18:26;3.70;;;2.07;;
16689;SDS011;8458;52.220;9.884;2023-07-30T12:20:54;4.03;;;2.30;;
16689;SDS011;8458;52.220;9.884;2023-07-30T12:23:22;3.67;;;2.70;;
16689;SDS011;8458;52.220;9.884;2023-07-30T12:25:50;4.50;;;3.00;;
16689;SDS011;8458;52.220;9.884;2023-07-30T12:28:17;5.13;;;2.97;;
16689;SDS011;8458;52.220;9.884;2023-07-30T12:30:43;4.87;;;2.87;;
16689;SDS011;8458;52.220;9.884;2023-07-30T12:33:09;4.63;;;3.30;;
16689;SDS011;8458;52.220;9.884;2023-07-30T12:35:36;3.67;;;3.37;;
16689;SDS011;8458;52.220;9.884;2023-07-30T12:38:02;4.00;;;3.57;;
16689;SDS011;8458;52.220;9.884;2023-07-30T12:40:30;4.50;;;4.20;;
16689;SDS011;8458;52.220;9.884;2023-07-30T12:42:59;3.60;;;3.30;;
16689;SDS011;8458;52.220;9.884;2023-07-30T12:45:26;4.00;;;3.67;;
16689;SDS011;8458;52.220;9.884;2023-07-30T12:47:53;3.67;;;3.37;;
16689;SDS011;8458;52.220;9.884;2023-07-30T12:50:19;3.47;;;3.17;;
16689;SDS011;8458;52.220;9.884;2023-07-30T12:52:46;3.40;;;3.10;;
16689;SDS011;8458;52.220;9.884;2023-07-30T12:55:12;2.90;;;2.60;;
16689;SDS011;8458;52.220;9.884;2023-07-30T12:57:40;3.70;;;2.83;;
16689;SDS011;8458;52.220;9.884;2023-07-30T13:00:06;4.30;;;2.90;;
16689;SDS011;8458;52.220;9.884;2023-07-30T13:02:34;3.53;;;2.87;;
16689;SDS011;8458;52.220;9.884;2023-07-30T13:05:01;3.10;;;2.80;;
16689;SDS011;8458;52.220;9.884;2023-07-30T13:07:28;3.50;;;3.20;;
16689;SDS011;8458;52.220;9.884;2023-07-30T13:10:01;3.43;;;3.13;;
16689;SDS011;8458;52.220;9.884;2023-07-30T13:12:29;4.50;;;4.20;;
16689;SDS011;8458;52.220;9.884;2023-07-30T13:14:57;4.47;;;4.13;;
16689;SDS011;8458;52.220;9.884;2023-07-30T13:17:24;3.83;;;3.53;;
16689;SDS011;8458;52.220;9.884;2023-07-30T13:19:50;3.70;;;3.40;;
16689;SDS011;8458;52.220;9.884;2023-07-30T13:22:17;3.43;;;3.03;;
16689;SDS011;8458;52.220;9.884;2023-07-30T13:24:43;2.57;;;2.37;;
16689;SDS011;8458;52.220;9.884;2023-07-30T13:27:10;3.30;;;3.00;;
16689;SDS011;8458;52.220;9.884;2023-07-30T13:29:36;3.47;;;3.20;;
16689;SDS011;8458;52.220;9.884;2023-07-30T13:32:04;3.37;;;3.10;;
16689;SDS011;8458;52.220;9.884;2023-07-30T13:34:31;4.17;;;3.30;;
16689;SDS011;8458;52.220;9.884;2023-07-30T13:36:58;3.10;;;2.80;;
16689;SDS011;8458;52.220;9.884;2023-07-30T13:39:24;3.20;;;2.90;;
16689;SDS011;8458;52.220;9.884;2023-07-30T13:41:51;3.13;;;2.73;;
16689;SDS011;8458;52.220;9.884;2023-07-30T13:44:17;4.07;;;3.00;;
16689;SDS011;8458;52.220;9.884;2023-07-30T13:46:44;2.80;;;2.60;;
16689;SDS011;8458;52.220;9.884;2023-07-30T13:49:12;3.03;;;2.47;;
16689;SDS011;8458;52.220;9.884;2023-07-30T13:51:38;4.03;;;2.20;;
16689;SDS011;8458;52.220;9.884;2023-07-30T13:54:04;2.57;;;2.20;;
16689;SDS011;8458;52.220;9.884;2023-07-30T13:56:33;3.63;;;1.70;;
16689;SDS011;8458;52.220;9.884;2023-07-30T13:58:59;2.63;;;1.60;;
16689;SDS011;8458;52.220;9.884;2023-07-30T14:01:28;2.07;;;1.40;;
16689;SDS011;8458;52.220;9.884;2023-07-30T14:03:54;3.03;;;1.60;;
16689;SDS011;8458;52.220;9.884;2023-07-30T14:06:22;2.23;;;1.60;;
16689;SDS011;8458;52.220;9.884;2023-07-30T14:08:49;2.70;;;1.43;;
16689;SDS011;8458;52.220;9.884;2023-07-30T14:11:15;1.53;;;1.30;;
16689;SDS011;8458;52.220;9.884;2023-07-30T14:13:41;2.07;;;1.37;;
16689;SDS011;8458;52.220;9.884;2023-07-30T14:16:08;1.87;;;1.37;;
16689;SDS011;8458;52.220;9.884;2023-07-30T14:18:35;2.20;;;1.40;;
16689;SDS011;8458;52.220;9.884;2023-07-30T14:21:03;2.40;;;1.40;;
16689;SDS011;8458;52.220;9.884;2023-07-30T14:23:31;3.03;;;1.30;;
16689;SDS011;8458;52.220;9.884;2023-07-30T14:25:57;2.20;;;1.23;;
16689;SDS011;8458;52.220;9.884;2023-07-30T14:28:23;2.20;;;1.17;;
16689;SDS011;8458;52.220;9.884;2023-07-30T14:30:50;2.53;;;1.00;;
16689;SDS011;8458;52.220;9.884;2023-07-30T14:33:16;1.50;;;1.00;;
16689;SDS011;8458;52.220;9.884;2023-07-30T14:35:43;2.10;;;1.10;;
16689;SDS011;8458;52.220;9.884;2023-07-30T14:38:09;1.90;;;1.20;;
16689;SDS011;8458;52.220;9.884;2023-07-30T14:40:39;1.67;;;1.00;;
16689;SDS011;8458;52.220;9.884;2023-07-30T14:43:05;1.73;;;1.00;;
16689;SDS011;8458;52.220;9.884;2023-07-30T14:45:32;1.67;;;1.00;;
16689;SDS011;8458;52.220;9.884;2023-07-30T14:47:58;2.23;;;1.20;;
16689;SDS011;8458;52.220;9.884;2023-07-30T14:50:26;1.80;;;1.03;;
16689;SDS011;8458;52.220;9.884;2023-07-30T14:52:52;2.63;;;1.07;;
16689;SDS011;8458;52.220;9.884;2023-07-30T14:55:19;2.10;;;1.10;;
16689;SDS011;8458;52.220;9.884;2023-07-30T14:57:46;2.23;;;1.00;;
16689;SDS011;8458;52.220;9.884;2023-07-30T15:00:13;3.03;;;0.80;;